createdAt,value
2018-04-26T00:00:39.781Z,3.30
2018-04-26T00:02:50.997Z,3.73
2018-04-26T00:05:02.158Z,3.30
2018-04-26T00:07:13.382Z,3.87
2018-04-26T00:09:24.638Z,3.47
2018-04-26T00:11:35.745Z,3.90
2018-04-26T00:13:46.957Z,4.00
2018-04-26T00:15:58.066Z,4.00
2018-04-26T00:18:09.182Z,4.20
2018-04-26T00:20:20.278Z,3.70
2018-04-26T00:22:31.322Z,4.20
2018-04-26T00:24:42.419Z,4.07
2018-04-26T00:26:53.532Z,3.37
2018-04-26T00:29:04.614Z,3.67
2018-04-26T00:31:15.866Z,3.30
2018-04-26T00:33:27.032Z,3.57
2018-04-26T00:35:38.114Z,3.30
2018-04-26T00:37:49.206Z,3.30
2018-04-26T00:40:00.329Z,4.03
2018-04-26T00:42:11.373Z,3.70
2018-04-26T00:44:22.478Z,3.97
2018-04-26T00:46:33.562Z,3.90
2018-04-26T00:48:44.697Z,4.50
2018-04-26T00:50:55.765Z,3.30
2018-04-26T00:53:06.874Z,4.17
2018-04-26T00:55:17.937Z,3.83
2018-04-26T00:57:29.018Z,3.17
2018-04-26T00:59:40.099Z,4.20
2018-04-26T01:01:51.198Z,4.03
2018-04-26T01:04:02.329Z,3.63
2018-04-26T01:06:13.480Z,4.10
2018-04-26T01:08:24.744Z,3.67
2018-04-26T01:10:35.871Z,4.47
2018-04-26T01:12:47.096Z,4.13
2018-04-26T01:14:58.171Z,4.13
2018-04-26T01:17:09.261Z,3.50
2018-04-26T01:19:22.042Z,3.97
2018-04-26T01:21:33.223Z,3.80
2018-04-26T01:23:44.438Z,3.67
2018-04-26T01:25:55.634Z,3.93
2018-04-26T01:28:06.790Z,3.47
2018-04-26T01:30:17.867Z,4.03
2018-04-26T01:32:28.929Z,3.50
2018-04-26T01:34:40.047Z,3.20
2018-04-26T01:39:35.961Z,3.50
2018-04-26T01:41:47.170Z,3.20
2018-04-26T01:43:58.301Z,3.67
2018-04-26T01:46:09.413Z,3.53
2018-04-26T01:48:20.461Z,3.40
2018-04-26T01:50:31.561Z,3.27
2018-04-26T01:52:42.622Z,3.53
2018-04-26T01:54:53.727Z,3.67
2018-04-26T01:57:04.865Z,2.80
2018-04-26T01:59:15.999Z,3.40
2018-04-26T02:01:27.150Z,2.80
2018-04-26T02:03:38.201Z,3.07
2018-04-26T02:05:49.339Z,3.40
2018-04-26T02:08:00.415Z,3.37
2018-04-26T02:10:11.471Z,3.13
2018-04-26T02:12:22.618Z,3.60
2018-04-26T02:14:33.685Z,2.97
2018-04-26T02:16:45.555Z,3.20
2018-04-26T02:18:56.750Z,3.23
2018-04-26T02:21:07.833Z,3.00
2018-04-26T02:23:19.145Z,3.30
2018-04-26T02:25:30.194Z,3.13
2018-04-26T02:27:41.402Z,3.40
2018-04-26T02:29:52.495Z,3.17
2018-04-26T02:32:03.564Z,3.20
2018-04-26T02:34:14.622Z,3.60
2018-04-26T02:36:25.663Z,2.83
2018-04-26T02:38:36.775Z,3.07
2018-04-26T02:40:47.870Z,2.70
2018-04-26T02:42:58.983Z,3.10
2018-04-26T02:45:10.044Z,2.77
2018-04-26T02:47:21.274Z,3.13
2018-04-26T02:49:32.360Z,2.10
2018-04-26T02:51:43.430Z,3.00
2018-04-26T02:53:54.514Z,3.20
2018-04-26T02:56:05.598Z,2.67
2018-04-26T02:58:16.790Z,3.60
2018-04-26T03:00:27.947Z,3.03
2018-04-26T03:02:39.106Z,3.23
2018-04-26T03:04:50.181Z,3.37
2018-04-26T03:07:01.414Z,2.90
2018-04-26T03:09:12.542Z,3.23
2018-04-26T03:11:23.653Z,3.27
2018-04-26T03:13:34.703Z,3.17
2018-04-26T03:15:45.795Z,3.53
2018-04-26T03:17:56.939Z,3.00
2018-04-26T03:20:08.021Z,2.90
2018-04-26T03:22:19.229Z,2.67
2018-04-26T03:24:30.286Z,2.60
2018-04-26T03:26:41.443Z,2.67
2018-04-26T03:28:52.533Z,2.77
2018-04-26T03:31:03.633Z,2.80
2018-04-26T03:33:14.720Z,3.53
2018-04-26T03:35:25.774Z,3.30
2018-04-26T03:37:36.904Z,3.30
2018-04-26T03:39:48.087Z,3.80
2018-04-26T03:41:59.268Z,3.30
2018-04-26T03:44:10.370Z,3.23
2018-04-26T03:46:21.558Z,3.70
2018-04-26T03:48:32.681Z,3.77
2018-04-26T03:50:43.739Z,3.50
2018-04-26T03:52:54.809Z,4.23
2018-04-26T03:55:05.950Z,3.97
2018-04-26T03:57:17.297Z,3.83
2018-04-26T03:59:28.345Z,3.10
2018-04-26T04:01:51.718Z,3.60
2018-04-26T04:04:15.125Z,3.10
2018-04-26T04:06:26.202Z,3.43
2018-04-26T04:08:37.298Z,3.80
2018-04-26T04:10:48.418Z,3.80
2018-04-26T04:12:59.649Z,3.23
2018-04-26T04:15:10.734Z,3.73
2018-04-26T04:17:21.903Z,3.90
2018-04-26T04:19:32.978Z,3.80
2018-04-26T04:21:44.121Z,3.70
2018-04-26T04:23:55.233Z,4.20
2018-04-26T04:26:06.318Z,3.83
2018-04-26T04:28:17.374Z,3.17
2018-04-26T04:30:28.431Z,2.80
2018-04-26T04:32:39.609Z,3.43
2018-04-26T04:34:50.762Z,3.60
2018-04-26T04:37:01.952Z,3.57
2018-04-26T04:39:13.069Z,3.87
2018-04-26T04:41:24.123Z,3.90
2018-04-26T04:43:35.212Z,3.53
2018-04-26T04:45:46.284Z,4.00
2018-04-26T04:47:57.546Z,4.07
2018-04-26T04:50:08.641Z,4.33
2018-04-26T04:52:19.714Z,3.60
2018-04-26T04:54:30.838Z,4.27
2018-04-26T04:56:42.018Z,3.73
2018-04-26T04:58:53.126Z,5.10
2018-04-26T05:01:04.184Z,4.13
2018-04-26T05:03:15.290Z,4.03
2018-04-26T05:05:26.392Z,3.20
2018-04-26T05:07:37.577Z,4.03
2018-04-26T05:09:48.702Z,3.47
2018-04-26T05:11:59.898Z,3.60
2018-04-26T05:14:11.016Z,3.33
2018-04-26T05:16:22.156Z,3.87
2018-04-26T05:18:33.209Z,3.57
2018-04-26T05:20:44.309Z,3.97
2018-04-26T05:22:55.374Z,3.70
2018-04-26T05:25:06.482Z,2.53
2018-04-26T05:27:17.576Z,3.50
2018-04-26T05:29:28.645Z,3.23
2018-04-26T05:31:39.842Z,3.00
2018-04-26T05:33:50.896Z,3.43
2018-04-26T05:36:02.074Z,2.50
2018-04-26T05:38:13.202Z,2.97
2018-04-26T05:40:24.242Z,3.03
2018-04-26T05:42:35.318Z,3.23
2018-04-26T05:44:46.370Z,2.97
2018-04-26T05:46:57.531Z,2.83
2018-04-26T05:49:08.649Z,2.07
2018-04-26T05:51:19.770Z,2.13
2018-04-26T05:53:30.867Z,2.40
2018-04-26T05:55:42.042Z,2.33
2018-04-26T05:57:53.156Z,2.03
2018-04-26T06:00:04.232Z,2.53
2018-04-26T06:02:15.298Z,2.93
2018-04-26T06:04:26.387Z,2.87
2018-04-26T06:06:37.489Z,2.33
2018-04-26T06:08:48.546Z,2.40
2018-04-26T06:10:59.761Z,2.63
2018-04-26T06:13:10.842Z,3.10
2018-04-26T06:15:22.149Z,2.57
2018-04-26T06:17:33.213Z,2.57
2018-04-26T06:19:44.306Z,2.80
2018-04-26T06:21:55.378Z,2.60
2018-04-26T06:24:06.470Z,2.73
2018-04-26T06:26:17.661Z,2.60
2018-04-26T06:28:28.724Z,2.37
2018-04-26T06:30:39.806Z,2.50
2018-04-26T06:32:50.882Z,2.57
2018-04-26T06:35:01.961Z,2.50
2018-04-26T06:37:14.090Z,3.03
2018-04-26T06:39:25.168Z,2.33
2018-04-26T06:41:36.440Z,2.40
2018-04-26T06:43:47.567Z,2.80
2018-04-26T06:45:58.642Z,2.53
2018-04-26T06:48:09.721Z,2.30
2018-04-26T06:50:20.794Z,2.40
2018-04-26T06:52:31.934Z,2.20
2018-04-26T06:54:43.042Z,2.33
2018-04-26T06:56:54.122Z,2.20
2018-04-26T06:59:05.329Z,2.40
2018-04-26T07:01:16.386Z,2.60
2018-04-26T07:03:27.491Z,2.70
2018-04-26T07:05:38.538Z,2.57
2018-04-26T07:07:49.633Z,2.27
2018-04-26T07:10:00.706Z,2.83
2018-04-26T07:12:11.927Z,2.60
2018-04-26T07:14:22.935Z,2.70
2018-04-26T07:16:34.075Z,2.60
2018-04-26T07:18:45.174Z,2.10
2018-04-26T07:20:56.305Z,3.27
2018-04-26T07:23:07.356Z,3.33
2018-04-26T07:25:18.428Z,2.30
2018-04-26T07:27:29.513Z,2.30
2018-04-26T07:29:40.666Z,2.40
2018-04-26T07:31:51.810Z,2.20
2018-04-26T07:34:02.931Z,2.10
2018-04-26T07:36:14.155Z,1.97
2018-04-26T07:38:25.218Z,1.63
2018-04-26T07:40:36.314Z,1.80
2018-04-26T07:42:47.376Z,1.90
2018-04-26T07:44:58.450Z,1.80
2018-04-26T07:47:09.551Z,1.87
2018-04-26T07:49:20.769Z,2.47
2018-04-26T07:51:31.930Z,2.40
2018-04-26T07:53:43.022Z,2.13
2018-04-26T07:55:54.257Z,2.43
2018-04-26T07:58:05.342Z,2.30
2018-04-26T08:00:16.384Z,2.33
2018-04-26T08:02:27.483Z,2.23
2018-04-26T08:04:38.546Z,2.07
2018-04-26T08:06:49.705Z,2.80
2018-04-26T08:09:00.842Z,2.67
2018-04-26T08:11:11.995Z,2.17
2018-04-26T08:13:23.078Z,1.93
2018-04-26T08:15:34.337Z,2.10
2018-04-26T08:17:45.397Z,1.80
2018-04-26T08:19:56.478Z,2.23
2018-04-26T08:22:07.558Z,2.37
2018-04-26T08:24:18.626Z,2.70
2018-04-26T08:26:29.702Z,2.23
2018-04-26T08:28:40.807Z,2.13
2018-04-26T08:30:51.906Z,2.33
2018-04-26T08:33:03.003Z,1.93
2018-04-26T08:35:14.073Z,2.43
2018-04-26T08:37:25.136Z,2.47
2018-04-26T08:39:36.264Z,2.83
2018-04-26T08:41:47.346Z,2.40
2018-04-26T08:43:58.583Z,3.00
2018-04-26T08:46:09.645Z,3.03
2018-04-26T08:48:20.698Z,2.80
2018-04-26T08:50:31.786Z,2.90
2018-04-26T08:52:42.889Z,3.00
2018-04-26T08:54:53.960Z,2.80
2018-04-26T08:57:05.039Z,2.67
2018-04-26T08:59:16.085Z,2.50
2018-04-26T09:01:27.185Z,2.67
2018-04-26T09:03:38.336Z,2.23
2018-04-26T09:05:49.484Z,2.10
2018-04-26T09:08:00.630Z,2.57
2018-04-26T09:10:11.670Z,2.47
2018-04-26T09:12:22.795Z,2.03
2018-04-26T09:14:33.886Z,2.43
2018-04-26T09:16:44.988Z,2.23
2018-04-26T09:18:56.169Z,2.23
2018-04-26T09:21:07.239Z,2.63
2018-04-26T09:23:18.415Z,2.47
2018-04-26T09:25:29.462Z,2.80
2018-04-26T09:27:40.741Z,2.57
2018-04-26T09:29:51.800Z,2.60
2018-04-26T09:32:02.866Z,2.70
2018-04-26T09:34:13.944Z,2.33
2018-04-26T09:36:25.018Z,2.23
2018-04-26T09:38:36.171Z,2.50
2018-04-26T09:40:47.253Z,2.23
2018-04-26T09:42:58.482Z,2.20
2018-04-26T09:45:09.617Z,2.33
2018-04-26T09:47:20.813Z,2.73
2018-04-26T09:49:31.882Z,2.63
2018-04-26T09:51:42.950Z,2.63
2018-04-26T09:53:54.075Z,2.40
2018-04-26T09:56:05.149Z,2.13
2018-04-26T09:58:16.316Z,2.10
2018-04-26T10:00:27.375Z,1.97
2018-04-26T10:02:44.570Z,2.17
2018-04-26T10:04:56.553Z,2.00
2018-04-26T10:07:07.682Z,2.17
2018-04-26T10:09:18.749Z,2.10
2018-04-26T10:11:29.857Z,1.73
2018-04-26T10:13:40.962Z,2.00
2018-04-26T10:15:52.062Z,1.73
2018-04-26T10:18:03.138Z,2.00
2018-04-26T10:20:14.230Z,1.67
2018-04-26T10:22:25.354Z,1.80
2018-04-26T10:24:36.514Z,1.40
2018-04-26T10:26:47.587Z,1.53
2018-04-26T10:28:58.713Z,1.87
2018-04-26T10:31:09.786Z,2.10
2018-04-26T10:33:20.897Z,2.00
2018-04-26T10:35:31.946Z,1.70
2018-04-26T10:37:43.094Z,1.77
2018-04-26T10:39:54.148Z,2.00
2018-04-26T10:42:05.219Z,1.97
2018-04-26T10:44:16.471Z,1.90
2018-04-26T10:46:27.484Z,2.10
2018-04-26T10:48:38.681Z,1.90
2018-04-26T10:50:49.775Z,1.93
2018-04-26T10:53:00.995Z,2.10
2018-04-26T10:55:12.038Z,2.00
2018-04-26T10:57:23.089Z,2.13
2018-04-26T10:59:34.190Z,2.10
2018-04-26T11:01:45.272Z,2.13
2018-04-26T11:03:56.417Z,1.70
2018-04-26T11:06:07.570Z,2.00
2018-04-26T11:08:18.730Z,1.97
2018-04-26T11:10:29.858Z,1.50
2018-04-26T11:12:41.146Z,1.80
2018-04-26T11:14:52.274Z,1.63
2018-04-26T11:17:03.409Z,1.53
2018-04-26T11:19:14.480Z,1.40
2018-04-26T11:21:25.641Z,1.53
2018-04-26T11:23:36.814Z,1.50
2018-04-26T11:25:47.894Z,1.40
2018-04-26T11:27:58.974Z,1.13
2018-04-26T11:30:10.050Z,1.37
2018-04-26T11:32:21.200Z,1.50
2018-04-26T11:34:32.270Z,1.40
2018-04-26T11:36:44.392Z,1.30
2018-04-26T11:38:55.527Z,1.30
2018-04-26T11:41:06.635Z,1.40
2018-04-26T11:43:17.797Z,1.30
2018-04-26T11:45:28.895Z,1.20
2018-04-26T11:47:39.961Z,1.40
2018-04-26T11:49:51.094Z,1.20
2018-04-26T11:52:02.197Z,1.77
2018-04-26T11:54:13.319Z,1.30
2018-04-26T11:56:24.524Z,1.40
2018-04-26T11:58:35.465Z,1.60
2018-04-26T12:00:46.605Z,1.30
2018-04-26T12:02:57.697Z,1.50
2018-04-26T12:05:08.830Z,1.37
2018-04-26T12:07:19.962Z,0.93
2018-04-26T12:09:31.091Z,1.27
2018-04-26T12:11:42.198Z,1.27
2018-04-26T12:13:53.293Z,1.30
2018-04-26T12:16:04.369Z,1.30
2018-04-26T12:18:15.435Z,1.67
2018-04-26T12:20:26.614Z,1.40
2018-04-26T12:22:37.724Z,1.40
2018-04-26T12:24:48.882Z,1.20
2018-04-26T12:26:59.947Z,1.30
2018-04-26T12:29:11.097Z,1.30
2018-04-26T12:31:22.200Z,1.40
2018-04-26T12:33:33.336Z,1.33
2018-04-26T12:35:44.421Z,1.47
2018-04-26T12:37:55.495Z,1.47
2018-04-26T12:40:06.560Z,1.07
2018-04-26T12:42:17.762Z,1.20
2018-04-26T12:44:28.896Z,1.10
2018-04-26T12:46:39.986Z,1.10
2018-04-26T12:48:51.121Z,1.30
2018-04-26T12:51:02.193Z,1.37
2018-04-26T12:53:13.405Z,1.27
2018-04-26T12:55:25.241Z,1.30
2018-04-26T12:57:36.318Z,1.10
2018-04-26T12:59:47.494Z,1.20
2018-04-26T13:01:58.600Z,0.90
2018-04-26T13:04:09.734Z,1.20
2018-04-26T13:06:20.837Z,1.13
2018-04-26T13:08:31.946Z,1.43
2018-04-26T13:10:43.126Z,1.57
2018-04-26T13:12:54.192Z,0.90
2018-04-26T13:15:05.429Z,1.40
2018-04-26T13:17:16.508Z,1.20
2018-04-26T13:19:27.792Z,1.10
2018-04-26T13:21:39.071Z,1.20
2018-04-26T13:23:50.162Z,0.90
2018-04-26T13:26:01.378Z,1.80
2018-04-26T13:28:12.446Z,1.60
2018-04-26T13:30:23.538Z,1.60
2018-04-26T13:32:34.594Z,1.33
2018-04-26T13:34:45.770Z,1.30
2018-04-26T13:36:56.859Z,1.43
2018-04-26T13:39:08.037Z,1.40
2018-04-26T13:41:19.274Z,1.00
2018-04-26T13:43:30.386Z,1.40
2018-04-26T13:45:41.586Z,1.30
2018-04-26T13:47:52.754Z,1.00
2018-04-26T13:50:03.818Z,1.30
2018-04-26T13:52:14.927Z,1.10
2018-04-26T13:54:25.971Z,1.10
2018-04-26T13:56:37.078Z,1.00
2018-04-26T13:58:48.201Z,1.30
2018-04-26T14:00:59.447Z,1.20
2018-04-26T14:03:10.566Z,1.30
2018-04-26T14:05:21.721Z,1.10
2018-04-26T14:07:32.934Z,1.10
2018-04-26T14:09:44.046Z,0.70
2018-04-26T14:11:55.147Z,1.30
2018-04-26T14:14:06.295Z,0.97
2018-04-26T14:16:17.366Z,1.17
2018-04-26T14:18:28.418Z,1.20
2018-04-26T14:20:39.729Z,1.33
2018-04-26T14:22:50.822Z,1.30
2018-04-26T14:25:01.919Z,1.00
2018-04-26T14:27:13.033Z,1.20
2018-04-26T14:29:24.249Z,1.17
2018-04-26T14:31:35.285Z,1.23
2018-04-26T14:33:46.333Z,0.90
2018-04-26T14:35:57.481Z,1.10
2018-04-26T14:38:08.569Z,1.33
2018-04-26T14:40:19.702Z,1.20
2018-04-26T14:42:30.806Z,0.93
2018-04-26T14:44:41.874Z,1.00
2018-04-26T14:46:52.978Z,1.00
2018-04-26T14:49:04.034Z,1.13
2018-04-26T14:51:15.145Z,0.93
2018-04-26T14:53:26.218Z,1.20
2018-04-26T14:55:37.283Z,1.00
2018-04-26T14:57:48.453Z,1.20
2018-04-26T14:59:59.587Z,1.07
2018-04-26T15:02:10.702Z,0.90
2018-04-26T15:04:21.758Z,1.10
2018-04-26T15:06:32.930Z,0.80
2018-04-26T15:08:44.040Z,1.10
2018-04-26T15:10:55.118Z,0.90
2018-04-26T15:13:06.234Z,1.20
2018-04-26T15:15:17.438Z,1.20
2018-04-26T15:17:29.263Z,1.13
2018-04-26T15:19:40.337Z,1.00
2018-04-26T15:21:51.853Z,1.13
2018-04-26T15:24:03.033Z,0.80
2018-04-26T15:26:14.138Z,0.90
2018-04-26T15:28:25.361Z,0.83
2018-04-26T15:30:36.447Z,0.87
2018-04-26T15:32:47.744Z,0.90
2018-04-26T15:34:58.827Z,0.83
2018-04-26T15:37:09.910Z,1.07
2018-04-26T15:39:21.017Z,0.93
2018-04-26T15:41:32.111Z,1.10
2018-04-26T15:43:43.210Z,0.90
2018-04-26T15:45:54.329Z,0.90
2018-04-26T15:48:05.453Z,0.90
2018-04-26T15:50:25.560Z,1.00
2018-04-26T15:52:55.098Z,0.90
2018-04-26T15:55:18.634Z,1.00
2018-04-26T16:00:48.521Z,1.00
2018-04-26T16:03:11.882Z,1.30
2018-04-26T16:08:30.215Z,0.97
2018-04-26T16:10:59.654Z,1.10
2018-04-26T16:13:29.124Z,1.07
2018-04-26T16:15:58.601Z,0.87
2018-04-26T16:18:27.996Z,0.90
2018-04-26T16:23:57.927Z,0.90
2018-04-26T16:26:21.146Z,1.00
2018-04-26T16:28:50.532Z,0.90
2018-04-26T16:31:20.038Z,0.80
2018-04-26T16:36:30.700Z,0.90
2018-04-26T16:38:47.909Z,0.73
2018-04-26T16:40:59.028Z,0.80
2018-04-26T16:43:10.279Z,1.10
2018-04-26T16:45:21.336Z,1.07
2018-04-26T16:47:32.474Z,0.70
2018-04-26T16:49:43.733Z,0.70
2018-04-26T16:51:54.805Z,0.83
2018-04-26T16:54:06.070Z,0.80
2018-04-26T16:56:17.161Z,0.87
2018-04-26T16:58:28.259Z,1.10
2018-04-26T17:00:39.358Z,0.80
2018-04-26T17:02:50.498Z,0.93
2018-04-26T17:05:01.695Z,1.17
2018-04-26T17:07:12.837Z,1.03
2018-04-26T17:09:23.937Z,0.90
2018-04-26T17:11:35.074Z,0.93
2018-04-26T17:13:46.186Z,1.00
2018-04-26T17:15:57.294Z,1.10
2018-04-26T17:18:08.391Z,0.87
2018-04-26T17:20:19.430Z,1.10
2018-04-26T17:22:30.618Z,1.00
2018-04-26T17:24:41.754Z,1.00
2018-04-26T17:26:52.929Z,1.40
2018-04-26T17:29:04.115Z,0.90
2018-04-26T17:31:15.228Z,0.90
2018-04-26T17:33:26.434Z,0.90
2018-04-26T17:35:37.508Z,1.20
2018-04-26T17:37:48.620Z,1.03
2018-04-26T17:39:59.747Z,0.90
2018-04-26T17:42:10.866Z,0.80
2018-04-26T17:44:22.031Z,0.80
2018-04-26T17:46:33.104Z,0.97
2018-04-26T17:48:44.231Z,1.00
2018-04-26T17:50:55.338Z,1.30
2018-04-26T17:53:06.494Z,1.00
2018-04-26T17:55:17.602Z,0.80
2018-04-26T17:57:28.714Z,1.27
2018-04-26T17:59:39.802Z,0.90
2018-04-26T18:01:50.913Z,0.90
2018-04-26T18:04:02.095Z,1.27
2018-04-26T18:06:13.217Z,1.00
2018-04-26T18:08:24.464Z,1.20
2018-04-26T18:10:35.554Z,1.00
2018-04-26T18:12:46.791Z,1.23
2018-04-26T18:14:57.849Z,1.40
2018-04-26T18:17:08.951Z,1.07
2018-04-26T18:19:20.052Z,1.30
2018-04-26T18:21:31.167Z,1.20
2018-04-26T18:23:42.389Z,1.00
2018-04-26T18:25:53.582Z,1.07
2018-04-26T18:28:04.690Z,1.17
2018-04-26T18:30:16.013Z,1.30
2018-04-26T18:32:27.130Z,1.20
2018-04-26T18:34:38.316Z,1.17
2018-04-26T18:36:49.401Z,1.43
2018-04-26T18:39:00.535Z,1.30
2018-04-26T18:41:11.682Z,1.40
2018-04-26T18:43:22.804Z,1.20
2018-04-26T18:45:33.888Z,1.63
2018-04-26T18:47:44.995Z,2.07
2018-04-26T18:49:56.186Z,1.60
2018-04-26T18:52:07.293Z,1.20
2018-04-26T18:54:18.501Z,1.67
2018-04-26T18:56:29.628Z,1.40
2018-04-26T18:58:40.814Z,1.50
2018-04-26T19:00:51.875Z,1.23
2018-04-26T19:03:02.966Z,1.10
2018-04-26T19:05:14.070Z,1.27
2018-04-26T19:07:25.259Z,1.33
2018-04-26T19:09:36.383Z,2.10
2018-04-26T19:11:47.468Z,1.67
2018-04-26T19:13:58.649Z,2.97
2018-04-26T19:16:09.719Z,3.73
2018-04-26T19:18:20.860Z,3.90
2018-04-26T19:20:31.909Z,2.50
2018-04-26T19:22:42.999Z,2.33
2018-04-26T19:24:54.125Z,2.00
2018-04-26T19:27:05.266Z,1.50
2018-04-26T19:29:16.358Z,1.50
2018-04-26T19:31:27.453Z,1.20
2018-04-26T19:33:38.709Z,1.50
2018-04-26T19:35:49.885Z,1.70
2018-04-26T19:38:01.022Z,1.70
2018-04-26T19:40:12.301Z,1.97
2018-04-26T19:42:23.391Z,1.80
2018-04-26T19:44:34.493Z,1.90
2018-04-26T19:46:45.561Z,2.40
2018-04-26T19:48:56.755Z,1.90
2018-04-26T19:51:07.890Z,1.63
2018-04-26T19:53:19.164Z,1.13
2018-04-26T19:55:30.296Z,1.70
2018-04-26T19:57:41.432Z,1.60
2018-04-26T19:59:52.455Z,1.33
2018-04-26T20:02:03.578Z,1.40
2018-04-26T20:04:14.666Z,1.50
2018-04-26T20:06:25.779Z,1.30
2018-04-26T20:08:36.929Z,1.30
2018-04-26T20:10:48.058Z,1.33
2018-04-26T20:12:59.307Z,0.93
2018-04-26T20:15:10.435Z,1.40
2018-04-26T20:17:21.665Z,1.00
2018-04-26T20:19:33.045Z,1.20
2018-04-26T20:21:44.165Z,1.60
2018-04-26T20:23:55.246Z,1.40
2018-04-26T20:26:06.455Z,1.30
2018-04-26T20:28:17.628Z,1.60
2018-04-26T20:30:28.839Z,1.80
2018-04-26T20:32:40.079Z,1.80
2018-04-26T20:34:51.188Z,1.63
2018-04-26T20:37:02.282Z,1.57
2018-04-26T20:39:13.496Z,1.70
2018-04-26T20:41:24.761Z,1.80
2018-04-26T20:43:35.809Z,1.40
2018-04-26T20:45:46.951Z,1.60
2018-04-26T20:47:58.050Z,1.40
2018-04-26T20:50:09.153Z,1.57
2018-04-26T20:52:20.234Z,1.57
2018-04-26T20:54:31.311Z,1.60
2018-04-26T20:56:42.410Z,1.40
2018-04-26T20:58:53.534Z,1.17
2018-04-26T21:01:04.752Z,1.60
2018-04-26T21:03:15.923Z,1.93
2018-04-26T21:05:27.046Z,1.60
2018-04-26T21:07:38.112Z,1.70
2018-04-26T21:09:49.225Z,1.70
2018-04-26T21:12:00.331Z,1.50
2018-04-26T21:14:11.486Z,1.63
2018-04-26T21:16:22.545Z,1.40
2018-04-26T21:18:33.646Z,1.30
2018-04-26T21:20:44.781Z,1.50
2018-04-26T21:22:55.838Z,1.20
2018-04-26T21:25:06.947Z,1.20
2018-04-26T21:27:18.074Z,1.30
2018-04-26T21:29:29.182Z,1.43
2018-04-26T21:31:40.242Z,1.20
2018-04-26T21:33:51.309Z,1.40
2018-04-26T21:36:02.390Z,1.47
2018-04-26T21:38:13.574Z,1.30
2018-04-26T21:40:24.704Z,1.50
2018-04-26T21:42:35.763Z,1.27
2018-04-26T21:44:46.889Z,1.50
2018-04-26T21:46:57.990Z,1.87
2018-04-26T21:49:09.106Z,1.23
2018-04-26T21:51:26.082Z,1.47
2018-04-26T21:53:43.090Z,1.33
2018-04-26T21:56:00.143Z,1.43
2018-04-26T21:58:17.418Z,1.47
2018-04-26T22:00:34.477Z,1.40
2018-04-26T22:02:45.409Z,1.33
2018-04-26T22:07:47.265Z,1.03
2018-04-26T22:09:58.381Z,1.50
2018-04-26T22:12:09.446Z,1.10
2018-04-26T22:14:20.486Z,1.33
2018-04-26T22:16:31.572Z,1.30
2018-04-26T22:18:42.795Z,1.23
2018-04-26T22:20:53.890Z,1.17
2018-04-26T22:23:05.038Z,1.37
2018-04-26T22:25:16.073Z,1.60
2018-04-26T22:27:27.116Z,1.50
2018-04-26T22:29:38.167Z,1.50
2018-04-26T22:31:49.294Z,1.37
2018-04-26T22:34:00.385Z,1.70
2018-04-26T22:36:11.493Z,1.50
2018-04-26T22:38:22.706Z,1.47
2018-04-26T22:40:33.899Z,1.60
2018-04-26T22:42:45.169Z,1.67
2018-04-26T22:44:56.206Z,1.53
2018-04-26T22:47:07.319Z,1.60
2018-04-26T22:49:18.401Z,1.20
2018-04-26T22:51:29.510Z,1.40
2018-04-26T22:53:40.592Z,1.40
2018-04-26T22:55:51.670Z,1.57
2018-04-26T22:58:02.791Z,1.50
2018-04-26T23:00:13.861Z,1.20
2018-04-26T23:02:24.953Z,1.53
2018-04-26T23:04:36.019Z,1.50
2018-04-26T23:06:47.112Z,1.47
2018-04-26T23:08:58.183Z,1.47
2018-04-26T23:11:09.417Z,1.70
2018-04-26T23:13:20.498Z,1.60
2018-04-26T23:15:31.601Z,1.67
2018-04-26T23:17:42.663Z,1.70
2018-04-26T23:19:53.785Z,1.60
2018-04-26T23:22:04.855Z,1.70
2018-04-26T23:24:15.897Z,1.70
2018-04-26T23:26:26.986Z,1.87
2018-04-26T23:28:38.075Z,1.60
2018-04-26T23:30:49.197Z,1.80
2018-04-26T23:33:00.256Z,1.67
2018-04-26T23:35:11.400Z,1.70
2018-04-26T23:37:22.453Z,1.90
2018-04-26T23:39:33.555Z,1.60
2018-04-26T23:41:44.602Z,1.87
2018-04-26T23:43:55.682Z,1.60
2018-04-26T23:46:06.894Z,1.70
2018-04-26T23:48:17.977Z,1.80
2018-04-26T23:50:29.065Z,1.70
2018-04-26T23:52:40.122Z,1.87
2018-04-26T23:54:51.201Z,2.00
2018-04-26T23:57:02.249Z,2.30
2018-04-26T23:59:13.426Z,1.90
